createdAt,value
2023-05-04T00:00:34.686Z,349
2023-05-04T00:02:36.120Z,349
2023-05-04T00:06:39.518Z,349
2023-05-04T00:10:42.368Z,349
2023-05-04T00:12:43.704Z,349
2023-05-04T00:16:47.064Z,349
2023-05-04T00:22:51.481Z,349
2023-05-04T00:26:54.640Z,349
2023-05-04T00:28:55.954Z,349
2023-05-04T00:32:58.869Z,349
2023-05-04T00:39:02.823Z,349
2023-05-04T00:43:05.510Z,349
2023-05-04T00:45:07.051Z,349
2023-05-04T00:49:09.800Z,349
2023-05-04T00:53:13.241Z,350
2023-05-04T00:55:14.580Z,350
2023-05-04T00:59:18.196Z,350
2023-05-04T01:03:21.170Z,350
2023-05-04T01:05:22.670Z,350
2023-05-04T01:09:26.448Z,350
2023-05-04T01:11:28.406Z,350
2023-05-04T01:15:31.753Z,350
2023-05-04T01:21:36.665Z,350
2023-05-04T01:25:40.211Z,350
2023-05-04T01:27:42.152Z,350
2023-05-04T01:31:45.165Z,350
2023-05-04T01:35:47.875Z,350
2023-05-04T01:37:49.248Z,350
2023-05-04T01:41:51.820Z,350
2023-05-04T01:47:57.158Z,350
2023-05-04T01:52:00.966Z,350
2023-05-04T01:54:02.367Z,350
2023-05-04T01:58:05.516Z,350
2023-05-04T02:04:10.517Z,350
2023-05-04T02:08:14.028Z,350
2023-05-04T02:10:15.319Z,350
2023-05-04T02:14:17.393Z,350
2023-05-04T02:18:20.636Z,349
2023-05-04T02:20:22.286Z,349
2023-05-04T02:24:25.476Z,349
2023-05-04T02:28:28.154Z,349
2023-05-04T02:30:29.940Z,349
2023-05-04T02:34:33.829Z,349
2023-05-04T02:36:35.518Z,349
2023-05-04T02:38:36.623Z,349
2023-05-04T02:40:38.399Z,349
2023-05-04T02:46:42.325Z,349
2023-05-04T02:52:45.945Z,349
2023-05-04T02:56:49.181Z,349
2023-05-04T03:02:53.816Z,349
2023-05-04T03:06:55.956Z,349
2023-05-04T03:13:00.961Z,349
2023-05-04T03:17:03.168Z,349
2023-05-04T03:19:04.333Z,349
2023-05-04T03:23:07.120Z,349
2023-05-04T03:29:11.727Z,349
2023-05-04T03:35:23.270Z,349
2023-05-04T03:39:20.161Z,349
2023-05-04T03:45:26.651Z,349
2023-05-04T03:47:27.516Z,349
2023-05-04T03:49:37.203Z,349
2023-05-04T03:51:30.369Z,349
2023-05-04T03:55:34.159Z,349
2023-05-04T03:59:35.863Z,349
2023-05-04T04:01:37.341Z,349
2023-05-04T04:05:39.923Z,349
2023-05-04T04:11:45.240Z,349
2023-05-04T04:17:49.652Z,349
2023-05-04T04:21:53.902Z,350
2023-05-04T04:26:05.464Z,350
2023-05-04T04:27:57.979Z,350
2023-05-04T04:32:01.540Z,350
2023-05-04T04:34:03.177Z,349
2023-05-04T04:38:06.697Z,350
2023-05-04T04:42:09.586Z,349
2023-05-04T04:44:11.688Z,349
2023-05-04T04:48:14.340Z,349
2023-05-04T04:54:18.340Z,349
2023-05-04T05:00:23.711Z,349
2023-05-04T05:04:26.934Z,349
2023-05-04T05:08:29.829Z,349
2023-05-04T05:10:31.567Z,349
2023-05-04T05:14:34.258Z,341
2023-05-04T05:21:23.089Z,341
2023-05-04T05:23:24.380Z,341
2023-05-04T05:27:27.213Z,341
2023-05-04T05:31:30.365Z,329
2023-05-04T05:37:34.687Z,328
2023-05-04T05:41:36.983Z,328
2023-05-04T05:43:38.913Z,328
2023-05-04T05:47:41.765Z,328
2023-05-04T05:51:44.225Z,328
2023-05-04T05:53:45.890Z,328
2023-05-04T05:57:48.784Z,328
2023-05-04T06:03:53.152Z,328
2023-05-04T06:07:56.339Z,328
2023-05-04T06:09:57.696Z,328
2023-05-04T06:13:59.949Z,269
2023-05-04T06:20:05.295Z,269
2023-05-04T06:26:09.440Z,269
2023-05-04T06:30:12.499Z,268
2023-05-04T06:34:14.983Z,263
2023-05-04T06:36:15.998Z,263
2023-05-04T06:40:18.747Z,263
2023-05-04T06:42:20.687Z,263
2023-05-04T06:46:23.353Z,263
2023-05-04T06:50:25.198Z,263
2023-05-04T06:52:26.650Z,263
2023-05-04T06:56:28.977Z,263
2023-05-04T07:02:33.261Z,263
2023-05-04T07:08:36.464Z,168
2023-05-04T07:12:39.747Z,168
2023-05-04T07:18:44.593Z,168
2023-05-04T07:22:47.485Z,168
2023-05-04T07:24:48.484Z,168
2023-05-04T07:28:51.253Z,168
2023-05-04T07:32:54.523Z,352
2023-05-04T07:34:55.957Z,352
2023-05-04T07:38:58.152Z,352
2023-05-04T07:45:02.101Z,357
2023-05-04T07:51:05.890Z,153
2023-05-04T07:55:07.936Z,176
2023-05-04T08:01:11.588Z,63
2023-05-04T08:05:14.446Z,109
2023-05-04T08:07:15.234Z,150
2023-05-04T08:11:20.326Z,98
2023-05-04T08:15:20.812Z,90
2023-05-04T08:17:22.276Z,47
2023-05-04T08:21:24.434Z,166
2023-05-04T08:25:26.774Z,68
2023-05-04T08:27:28.316Z,137
2023-05-04T08:31:30.427Z,150
2023-05-04T08:33:31.661Z,129
2023-05-04T08:35:33.183Z,147
2023-05-04T08:37:34.517Z,103
2023-05-04T08:43:39.227Z,73
2023-05-04T08:49:43.694Z,360
2023-05-04T08:53:46.463Z,86
2023-05-04T08:59:51.355Z,105
2023-05-04T09:03:54.609Z,86
2023-05-04T09:07:57.847Z,122
2023-05-04T09:09:58.836Z,103
2023-05-04T09:14:01.333Z,123
2023-05-04T09:16:02.689Z,113
2023-05-04T09:18:03.934Z,132
2023-05-04T09:20:05.072Z,118
2023-05-04T09:26:08.680Z,133
2023-05-04T09:32:11.629Z,133
2023-05-04T09:36:13.548Z,103
2023-05-04T09:42:17.907Z,121
2023-05-04T09:46:20.337Z,176
2023-05-04T09:48:21.180Z,110
2023-05-04T09:52:24.593Z,120
2023-05-04T09:56:27.130Z,110
2023-05-04T09:58:28.216Z,90
2023-05-04T10:02:30.791Z,175
2023-05-04T10:08:34.856Z,178
2023-05-04T10:12:38.685Z,97
2023-05-04T10:14:40.250Z,115
2023-05-04T10:18:43.336Z,114
2023-05-04T10:24:46.907Z,60
2023-05-04T10:28:49.923Z,99
2023-05-04T10:30:51.036Z,120
2023-05-04T10:34:55.130Z,102
2023-05-04T10:38:56.113Z,163
2023-05-04T10:40:57.569Z,84
2023-05-04T10:44:59.892Z,118
2023-05-04T10:49:02.150Z,167
2023-05-04T10:51:03.313Z,152
2023-05-04T10:55:05.981Z,176
2023-05-04T10:57:07.606Z,106
2023-05-04T10:59:08.424Z,176
2023-05-04T11:01:09.267Z,155
2023-05-04T11:07:13.587Z,89
2023-05-04T11:11:16.187Z,111
2023-05-04T11:13:17.635Z,117
2023-05-04T11:17:27.930Z,139
2023-05-04T11:23:24.337Z,122
2023-05-04T11:27:27.513Z,193
2023-05-04T11:29:28.315Z,104
2023-05-04T11:33:30.662Z,123
2023-05-04T11:37:33.770Z,94
2023-05-04T11:39:35.383Z,136
2023-05-04T11:43:38.574Z,198
2023-05-04T11:47:40.611Z,194
2023-05-04T11:49:42.316Z,150
2023-05-04T11:53:45.442Z,100
2023-05-04T11:55:46.992Z,166
2023-05-04T11:59:49.841Z,117
2023-05-04T12:00:33.515Z,124
2023-05-04T12:04:35.705Z,102
2023-05-04T12:06:36.572Z,62
2023-05-04T12:10:39.552Z,149
2023-05-04T12:14:52.349Z,176
2023-05-04T12:16:43.338Z,170
2023-05-04T12:20:45.874Z,360
2023-05-04T12:24:49.275Z,81
2023-05-04T12:26:50.581Z,120
2023-05-04T12:30:53.660Z,111
2023-05-04T12:32:55.320Z,144
2023-05-04T12:34:56.121Z,132
2023-05-04T12:36:57.717Z,97
2023-05-04T12:43:02.289Z,123
2023-05-04T12:49:06.112Z,128
2023-05-04T12:53:08.675Z,158
2023-05-04T12:59:12.866Z,159
2023-05-04T13:03:15.559Z,105
2023-05-04T13:05:17.274Z,114
2023-05-04T13:09:20.408Z,114
2023-05-04T13:13:22.863Z,66
2023-05-04T13:15:24.115Z,152
2023-05-04T13:19:26.761Z,97
2023-05-04T13:25:30.493Z,111
2023-05-04T13:31:34.071Z,68
2023-05-04T13:35:37.142Z,81
2023-05-04T13:41:41.921Z,102
2023-05-04T13:45:45.093Z,83
2023-05-04T13:47:46.671Z,139
2023-05-04T13:51:48.956Z,180
2023-05-04T13:57:53.605Z,132
2023-05-04T14:01:55.819Z,55
2023-05-04T14:05:58.472Z,104
2023-05-04T14:07:59.436Z,101
2023-05-04T14:12:02.861Z,111
2023-05-04T14:14:03.639Z,90
2023-05-04T14:18:06.039Z,94
2023-05-04T14:24:10.082Z,70
2023-05-04T14:28:12.761Z,68
2023-05-04T14:30:13.929Z,116
2023-05-04T14:34:16.476Z,93
2023-05-04T14:38:18.155Z,163
2023-05-04T14:40:19.696Z,91
2023-05-04T14:44:21.981Z,166
2023-05-04T14:48:23.899Z,147
2023-05-04T14:50:26.102Z,54
2023-05-04T14:54:28.131Z,140
2023-05-04T14:56:29.515Z,100
2023-05-04T15:00:32.334Z,106
2023-05-04T15:06:37.005Z,98
2023-05-04T15:12:41.345Z,100
2023-05-04T15:16:43.996Z,152
2023-05-04T15:22:48.022Z,103
2023-05-04T15:26:50.683Z,78
2023-05-04T15:28:53.896Z,106
2023-05-04T15:32:53.627Z,88
2023-05-04T15:36:56.628Z,89
2023-05-04T15:38:58.108Z,101
2023-05-04T15:43:01.367Z,99
2023-05-04T15:49:04.679Z,107
2023-05-04T15:53:06.569Z,108
2023-05-04T15:55:23.130Z,102
2023-05-04T15:59:11.123Z,151
2023-05-04T16:05:15.815Z,122
2023-05-04T16:09:18.439Z,114
2023-05-04T16:11:19.873Z,128
2023-05-04T16:15:22.959Z,111
2023-05-04T16:19:25.000Z,93
2023-05-04T16:21:26.376Z,93
2023-05-04T16:25:29.124Z,103
2023-05-04T16:29:31.738Z,135
2023-05-04T16:31:33.127Z,102
2023-05-04T16:35:34.973Z,99
2023-05-04T16:37:35.848Z,104
2023-05-04T16:39:36.704Z,104
2023-05-04T16:41:38.289Z,121
2023-05-04T16:47:43.340Z,98
2023-05-04T16:53:47.606Z,103
2023-05-04T16:57:50.582Z,120
2023-05-04T17:03:54.952Z,113
2023-05-04T17:07:57.283Z,104
2023-05-04T17:14:02.346Z,64
2023-05-04T17:18:05.518Z,110
2023-05-04T17:20:06.885Z,75
2023-05-04T17:24:08.571Z,91
2023-05-04T17:30:11.520Z,91
2023-05-04T17:34:13.504Z,81
2023-05-04T17:36:14.822Z,110
2023-05-04T17:40:17.316Z,102
2023-05-04T17:46:21.481Z,101
2023-05-04T17:50:24.154Z,87
2023-05-04T17:52:25.642Z,91
2023-05-04T17:56:28.919Z,126
2023-05-04T18:00:31.775Z,77
2023-05-04T18:02:32.796Z,78
2023-05-04T18:06:35.253Z,75
2023-05-04T18:12:39.325Z,95
2023-05-04T18:16:41.994Z,90
2023-05-04T18:18:42.866Z,97
2023-05-04T18:22:45.706Z,95
2023-05-04T18:28:50.642Z,83
2023-05-04T18:32:53.894Z,88
2023-05-04T18:34:54.988Z,99
2023-05-04T18:38:58.476Z,99
2023-05-04T18:43:01.472Z,96
2023-05-04T18:45:03.210Z,93
2023-05-04T18:45:46.957Z,100
2023-05-04T18:47:48.155Z,99
2023-05-04T18:49:49.551Z,95
2023-05-04T18:53:52.462Z,96
2023-05-04T18:55:53.501Z,92
2023-05-04T18:57:54.816Z,97
2023-05-04T18:59:55.744Z,100
2023-05-04T19:05:59.294Z,106
2023-05-04T19:12:03.198Z,115
2023-05-04T19:16:06.151Z,115
2023-05-04T19:22:09.636Z,131
2023-05-04T19:26:11.821Z,109
2023-05-04T19:28:12.788Z,109
2023-05-04T19:32:23.246Z,108
2023-05-04T19:36:19.203Z,120
2023-05-04T19:38:20.464Z,124
2023-05-04T19:42:23.596Z,119
2023-05-04T19:48:28.205Z,103
2023-05-04T19:52:31.131Z,103
2023-05-04T19:54:32.976Z,115
2023-05-04T19:58:36.019Z,360
2023-05-04T20:04:40.552Z,102
2023-05-04T20:08:43.465Z,88
2023-05-04T20:10:45.057Z,360
2023-05-04T20:14:47.288Z,86
2023-05-04T20:18:49.629Z,86
2023-05-04T20:20:51.305Z,65
2023-05-04T20:24:54.308Z,65
2023-05-04T20:30:58.547Z,65
2023-05-04T20:35:01.314Z,65
2023-05-04T20:37:02.434Z,65
2023-05-04T20:41:05.617Z,65
2023-05-04T20:47:11.134Z,65
2023-05-04T20:51:15.345Z,65
2023-05-04T20:53:14.768Z,65
2023-05-04T20:57:17.595Z,65
2023-05-04T21:01:19.786Z,39
2023-05-04T21:03:21.567Z,360
2023-05-04T21:07:25.348Z,360
2023-05-04T21:11:27.119Z,360
2023-05-04T21:13:28.280Z,360
2023-05-04T21:17:31.364Z,360
2023-05-04T21:19:32.801Z,360
2023-05-04T21:21:33.647Z,360
2023-05-04T21:23:35.118Z,360
2023-05-04T21:29:39.581Z,360
2023-05-04T21:31:41.038Z,360
2023-05-04T21:35:44.382Z,360
2023-05-04T21:39:47.468Z,360
2023-05-04T21:45:50.824Z,360
2023-05-04T21:49:55.105Z,360
2023-05-04T21:51:55.792Z,360
2023-05-04T21:55:58.540Z,360
2023-05-04T22:00:00.671Z,360
2023-05-04T22:02:01.920Z,360
2023-05-04T22:06:05.260Z,360
2023-05-04T22:12:10.784Z,360
2023-05-04T22:18:15.230Z,360
2023-05-04T22:22:18.369Z,360
2023-05-04T22:28:23.200Z,360
2023-05-04T22:32:26.305Z,360
2023-05-04T22:34:27.759Z,360
2023-05-04T22:38:31.429Z,360
2023-05-04T22:42:33.877Z,360
2023-05-04T22:44:35.727Z,360
2023-05-04T22:48:38.957Z,360
2023-05-04T22:54:43.321Z,360
2023-05-04T23:00:46.825Z,360
2023-05-04T23:04:49.584Z,360
2023-05-04T23:06:51.493Z,360
2023-05-04T23:10:54.318Z,312
2023-05-04T23:14:57.269Z,312
2023-05-04T23:16:58.625Z,312
2023-05-04T23:21:01.452Z,312
2023-05-04T23:27:06.821Z,312
2023-05-04T23:31:09.401Z,33
2023-05-04T23:33:10.569Z,33
2023-05-04T23:37:12.921Z,33
2023-05-04T23:43:17.227Z,33
2023-05-04T23:47:20.969Z,33
2023-05-04T23:49:22.504Z,33
2023-05-04T23:53:25.602Z,33
2023-05-04T23:57:28.112Z,33
2023-05-04T23:59:29.093Z,33
